Weather Station Data

Station Data Captured at Five Minute Intervals Since Midnight Yesterday


Date Time Temp. RH % Dew Pt. Wind Speed Wind Dir. Peak Wind Wind Chill Pressure Precip. Solar W/m2 ET
10/18/17 3:20a 50.2 72 41.5 0.0 --- 0.0 50.2 30.242 0.00 0 0.000
10/18/17 3:15a 50.3 71 41.3 0.0 SSW 1.0 50.3 30.242 0.00 0 0.000
10/18/17 3:10a 50.5 71 41.4 0.0 SSW 2.0 50.5 30.243 0.00 0 0.000
10/18/17 3:05a 50.5 71 41.4 1.0 SSW 3.0 50.5 30.243 0.00 0 0.000
10/18/17 3:00a 50.5 71 41.4 0.0 SSW 3.0 50.5 30.245 0.00 0 0.001
10/18/17 2:55a 50.4 71 41.3 0.0 SSW 3.0 50.4 30.245 0.00 0 0.000
10/18/17 2:50a 50.4 72 41.7 1.0 SSW 4.0 50.4 30.244 0.00 0 0.000
10/18/17 2:45a 50.1 72 41.4 0.0 SSW 3.0 50.1 30.244 0.00 0 0.000
10/18/17 2:40a 49.8 73 41.5 0.0 --- 0.0 49.8 30.244 0.00 0 0.000
10/18/17 2:35a 49.5 75 41.9 0.0 SSW 3.0 49.5 30.244 0.00 0 0.000
10/18/17 2:30a 49.2 75 41.6 0.0 --- 0.0 49.2 30.244 0.00 0 0.000
10/18/17 2:25a 48.9 76 41.7 0.0 SSW 2.0 48.9 30.244 0.00 0 0.000
10/18/17 2:20a 48.9 77 42.0 0.0 --- 0.0 48.9 30.243 0.00 0 0.000
10/18/17 2:15a 49.2 76 42.0 0.0 S 1.0 49.2 30.244 0.00 0 0.000
10/18/17 2:10a 49.1 77 42.2 0.0 S 1.0 49.1 30.244 0.00 0 0.000
10/18/17 2:05a 49.0 77 42.1 0.0 --- 0.0 49.0 30.243 0.00 0 0.000
10/18/17 2:00a 49.1 77 42.2 0.0 S 1.0 49.1 30.243 0.00 0 0.001
10/18/17 1:55a 49.2 77 42.3 0.0 --- 0.0 49.2 30.243 0.00 0 0.000
10/18/17 1:50a 49.5 76 42.2 0.0 S 2.0 49.5 30.243 0.00 0 0.000
10/18/17 1:45a 49.5 76 42.2 0.0 S 1.0 49.5 30.244 0.00 0 0.000
10/18/17 1:40a 49.5 76 42.2 0.0 SSW 1.0 49.5 30.245 0.00 0 0.000
10/18/17 1:35a 49.3 77 42.4 0.0 SSW 2.0 49.3 30.245 0.00 0 0.000
10/18/17 1:30a 49.5 78 42.9 0.0 --- 0.0 49.5 30.244 0.00 0 0.000
10/18/17 1:25a 50.0 76 42.7 0.0 --- 0.0 50.0 30.244 0.00 0 0.000
10/18/17 1:20a 50.2 74 42.2 0.0 --- 0.0 50.2 30.245 0.00 0 0.000
10/18/17 1:15a 50.3 74 42.3 0.0 --- 0.0 50.3 30.244 0.00 0 0.000
10/18/17 1:10a 50.5 74 42.5 0.0 --- 0.0 50.5 30.245 0.00 0 0.000
10/18/17 1:05a 50.6 74 42.6 0.0 --- 0.0 50.6 30.244 0.00 0 0.000
10/18/17 1:00a 51.1 73 42.7 0.0 --- 0.0 51.1 30.246 0.00 0 0.001
10/18/17 12:55a 51.4 72 42.7 0.0 SSW 1.0 51.4 30.246 0.00 0 0.000
10/18/17 12:50a 51.7 71 42.6 0.0 SSW 2.0 51.7 30.246 0.00 0 0.000
10/18/17 12:45a 52.0 70 42.5 1.0 SSW 3.0 52.0 30.245 0.00 0 0.000
10/18/17 12:40a 52.1 70 42.6 1.0 S 3.0 52.1 30.245 0.00 0 0.000
10/18/17 12:35a 52.2 70 42.7 2.0 SSW 4.0 52.2 30.243 0.00 0 0.000
10/18/17 12:30a 52.1 70 42.6 0.0 S 3.0 52.1 30.244 0.00 0 0.000
10/18/17 12:25a 52.2 70 42.7 2.0 S 4.0 52.2 30.244 0.00 0 0.000
10/18/17 12:20a 52.2 70 42.7 2.0 SSW 3.0 52.2 30.246 0.00 0 0.000
10/18/17 12:15a 52.3 70 42.8 1.0 S 2.0 52.3 30.246 0.00 0 0.000
10/18/17 12:10a 52.3 70 42.8 1.0 SSW 3.0 52.3 30.246 0.00 0 0.000
10/18/17 12:05a 52.2 71 43.1 1.0 SSW 2.0 52.2 30.249 0.00 0 0.000
10/18/17 12:00a 52.1 71 43.0 1.0 SSW 2.0 52.1 30.249 0.00 0 0.001
10/17/17 11:55p 51.9 72 43.2 1.0 SSW 2.0 51.9 30.251 0.00 0 0.000
10/17/17 11:50p 51.4 73 43.0 0.0 SSW 3.0 51.4 30.252 0.00 0 0.000
10/17/17 11:45p 50.8 75 43.2 0.0 SSW 2.0 50.8 30.252 0.00 0 0.000
10/17/17 11:40p 50.6 75 43.0 0.0 --- 0.0 50.6 30.253 0.00 0 0.000
10/17/17 11:35p 50.6 75 43.0 0.0 --- 0.0 50.6 30.254 0.00 0 0.000
10/17/17 11:30p 50.5 75 42.9 0.0 --- 0.0 50.5 30.255 0.00 0 0.000
10/17/17 11:25p 50.5 75 42.9 0.0 --- 0.0 50.5 30.256 0.00 0 0.000
10/17/17 11:20p 50.8 75 43.2 0.0 --- 0.0 50.8 30.254 0.00 0 0.000
10/17/17 11:15p 51.2 75 43.5 0.0 --- 0.0 51.2 30.254 0.00 0 0.000
10/17/17 11:10p 51.3 74 43.3 0.0 --- 0.0 51.3 30.256 0.00 0 0.000
10/17/17 11:05p 51.3 74 43.3 0.0 --- 0.0 51.3 30.256 0.00 0 0.000
10/17/17 11:00p 51.5 74 43.5 0.0 --- 0.0 51.5 30.256 0.00 0 0.001
10/17/17 10:55p 51.4 73 43.0 0.0 --- 0.0 51.4 30.256 0.00 0 0.000
10/17/17 10:50p 51.4 74 43.4 0.0 --- 0.0 51.4 30.254 0.00 0 0.000
10/17/17 10:45p 51.9 75 44.2 0.0 --- 0.0 51.9 30.254 0.00 0 0.000
10/17/17 10:40p 52.4 72 43.6 0.0 --- 0.0 52.4 30.253 0.00 0 0.000
10/17/17 10:35p 52.6 72 43.8 0.0 --- 0.0 52.6 30.256 0.00 0 0.000
10/17/17 10:30p 53.1 70 43.6 0.0 --- 0.0 53.1 30.253 0.00 0 0.000
10/17/17 10:25p 53.5 69 43.6 0.0 --- 0.0 53.5 30.255 0.00 0 0.000
10/17/17 10:20p 53.7 68 43.4 0.0 --- 0.0 53.7 30.253 0.00 0 0.000
10/17/17 10:15p 53.9 67 43.2 0.0 SSW 1.0 53.9 30.251 0.00 0 0.000
10/17/17 10:10p 54.1 67 43.4 0.0 S 1.0 54.1 30.250 0.00 0 0.000
10/17/17 10:05p 54.2 66 43.1 1.0 SSW 2.0 54.2 30.250 0.00 0 0.000
10/17/17 10:00p 54.3 66 43.2 0.0 SSW 3.0 54.3 30.247 0.00 0 0.001
10/17/17 9:55p 54.2 66 43.1 1.0 SSW 2.0 54.2 30.248 0.00 0 0.000
10/17/17 9:50p 53.8 67 43.1 0.0 S 2.0 53.8 30.247 0.00 0 0.000
10/17/17 9:45p 54.1 66 43.0 0.0 --- 0.0 54.1 30.246 0.00 0 0.000
10/17/17 9:40p 54.5 66 43.4 0.0 --- 0.0 54.5 30.249 0.00 0 0.000
10/17/17 9:35p 54.6 65 43.1 0.0 --- 0.0 54.6 30.250 0.00 0 0.000
10/17/17 9:30p 54.6 65 43.1 0.0 --- 0.0 54.6 30.250 0.00 0 0.000
10/17/17 9:25p 54.5 65 43.0 0.0 --- 0.0 54.5 30.248 0.00 0 0.000
10/17/17 9:20p 54.6 65 43.1 0.0 --- 0.0 54.6 30.248 0.00 0 0.000
10/17/17 9:15p 54.4 66 43.3 0.0 --- 0.0 54.4 30.247 0.00 0 0.000
10/17/17 9:10p 54.5 65 43.0 0.0 --- 0.0 54.5 30.248 0.00 0 0.000
10/17/17 9:05p 54.5 66 43.4 0.0 --- 0.0 54.5 30.247 0.00 0 0.000
10/17/17 9:00p 54.5 66 43.4 0.0 --- 0.0 54.5 30.245 0.00 0 0.001
10/17/17 8:55p 54.2 67 43.5 0.0 S 3.0 54.2 30.246 0.00 0 0.000
10/17/17 8:50p 53.5 69 43.6 0.0 S 1.0 53.5 30.246 0.00 0 0.000
10/17/17 8:45p 53.3 71 44.1 0.0 --- 0.0 53.3 30.246 0.00 0 0.000
10/17/17 8:40p 53.3 72 44.5 0.0 --- 0.0 53.3 30.245 0.00 0 0.000
10/17/17 8:35p 53.5 72 44.7 0.0 --- 0.0 53.5 30.248 0.00 0 0.000
10/17/17 8:30p 53.8 71 44.6 0.0 --- 0.0 53.8 30.247 0.00 0 0.000
10/17/17 8:25p 54.1 71 44.9 0.0 --- 0.0 54.1 30.246 0.00 0 0.000
10/17/17 8:20p 54.5 71 45.3 0.0 --- 0.0 54.5 30.244 0.00 0 0.000
10/17/17 8:15p 55.0 68 44.6 0.0 --- 0.0 55.0 30.242 0.00 0 0.000
10/17/17 8:10p 55.4 69 45.4 0.0 --- 0.0 55.4 30.243 0.00 0 0.000
10/17/17 8:05p 55.6 68 45.2 0.0 --- 0.0 55.6 30.242 0.00 0 0.000
10/17/17 8:00p 55.7 65 44.1 0.0 --- 0.0 55.7 30.242 0.00 0 0.000
10/17/17 7:55p 55.7 64 43.7 0.0 --- 0.0 55.7 30.242 0.00 0 0.000
10/17/17 7:50p 55.8 64 43.8 0.0 --- 0.0 55.8 30.238 0.00 0 0.000
10/17/17 7:45p 55.9 65 44.3 0.0 --- 0.0 55.9 30.236 0.00 0 0.000
10/17/17 7:40p 56.0 64 44.0 0.0 --- 0.0 56.0 30.236 0.00 0 0.000
10/17/17 7:35p 56.5 63 44.0 0.0 --- 0.0 56.5 30.233 0.00 0 0.000
10/17/17 7:30p 57.1 62 44.2 0.0 --- 0.0 57.1 30.231 0.00 0 0.000
10/17/17 7:25p 57.2 62 44.3 0.0 --- 0.0 57.2 30.232 0.00 0 0.000
10/17/17 7:20p 57.9 63 45.4 0.0 --- 0.0 57.9 30.233 0.00 0 0.000
10/17/17 7:15p 58.3 60 44.5 0.0 --- 0.0 58.3 30.232 0.00 0 0.000
10/17/17 7:10p 58.5 59 44.2 0.0 --- 0.0 58.5 30.231 0.00 0 0.000
10/17/17 7:05p 58.9 59 44.6 0.0 --- 0.0 58.9 30.232 0.00 0 0.000
10/17/17 7:00p 59.2 56 43.5 0.0 --- 0.0 59.2 30.233 0.00 0 0.001
10/17/17 6:55p 59.5 56 43.8 0.0 --- 0.0 59.5 30.233 0.00 2 0.000
10/17/17 6:50p 59.8 55 43.6 0.0 --- 0.0 59.8 30.233 0.00 5 0.000
10/17/17 6:45p 60.3 54 43.6 0.0 --- 0.0 60.3 30.233 0.00 7 0.000
10/17/17 6:40p 60.5 54 43.8 0.0 --- 0.0 60.5 30.234 0.00 9 0.000
10/17/17 6:35p 60.8 54 44.0 0.0 --- 0.0 60.8 30.233 0.00 11 0.000
10/17/17 6:30p 61.1 53 43.8 0.0 --- 0.0 61.1 30.233 0.00 14 0.000
10/17/17 6:25p 61.6 53 44.3 0.0 --- 0.0 61.6 30.231 0.00 14 0.000
10/17/17 6:20p 62.1 52 44.3 0.0 --- 0.0 62.1 30.234 0.00 13 0.000
10/17/17 6:15p 62.3 50 43.4 0.0 --- 0.0 62.3 30.233 0.00 16 0.000
10/17/17 6:10p 62.5 48 42.5 0.0 S 1.0 62.5 30.233 0.00 20 0.000
10/17/17 6:05p 62.8 47 42.3 0.0 --- 0.0 62.8 30.233 0.00 19 0.000
10/17/17 6:00p 62.9 46 41.8 1.0 S 4.0 62.9 30.235 0.00 23 0.002
10/17/17 5:55p 63.1 46 42.0 2.0 S 5.0 63.1 30.233 0.00 26 0.000
10/17/17 5:50p 63.1 46 42.0 1.0 SSW 4.0 63.1 30.236 0.00 28 0.000
10/17/17 5:45p 63.3 46 42.2 0.0 WSW 2.0 63.3 30.237 0.00 26 0.000
10/17/17 5:40p 63.4 45 41.7 1.0 SSW 4.0 63.4 30.237 0.00 29 0.000
10/17/17 5:35p 63.5 47 42.9 1.0 SSW 3.0 63.5 30.237 0.00 30 0.000
10/17/17 5:30p 63.6 47 43.0 1.0 S 5.0 63.6 30.238 0.00 31 0.000
10/17/17 5:25p 63.6 46 42.4 2.0 SSW 7.0 63.6 30.237 0.00 32 0.000
10/17/17 5:20p 63.6 47 43.0 2.0 S 5.0 63.6 30.239 0.00 32 0.000
10/17/17 5:15p 63.7 46 42.5 1.0 SSW 4.0 63.7 30.237 0.00 33 0.000
10/17/17 5:10p 63.6 45 41.9 2.0 S 7.0 63.6 30.237 0.00 33 0.000
10/17/17 5:05p 63.8 46 42.6 2.0 S 5.0 63.8 30.238 0.00 33 0.000
10/17/17 5:00p 63.9 46 42.7 0.0 SSW 4.0 63.9 30.238 0.00 35 0.006
10/17/17 4:55p 64.1 46 42.9 1.0 S 4.0 64.1 30.239 0.00 40 0.000
10/17/17 4:50p 64.2 45 42.4 0.0 SSW 4.0 64.2 30.240 0.00 36 0.000
10/17/17 4:45p 64.4 46 43.2 1.0 SSW 7.0 64.4 30.240 0.00 40 0.000
10/17/17 4:40p 64.7 45 42.9 1.0 SSW 4.0 64.7 30.239 0.00 83 0.000
10/17/17 4:35p 65.0 46 43.7 1.0 SSW 6.0 65.0 30.240 0.00 168 0.000
10/17/17 4:30p 65.2 45 43.3 2.0 SSE 8.0 65.2 30.239 0.00 387 0.000
10/17/17 4:25p 65.4 46 44.1 2.0 SSW 5.0 65.4 30.240 0.00 399 0.000
10/17/17 4:20p 65.5 46 44.2 1.0 SSW 5.0 65.5 30.242 0.00 411 0.000
10/17/17 4:15p 65.4 44 42.9 0.0 SSW 2.0 65.4 30.243 0.00 422 0.000
10/17/17 4:10p 65.0 45 43.1 1.0 SSW 4.0 65.0 30.242 0.00 434 0.000
10/17/17 4:05p 64.7 46 43.4 2.0 S 7.0 64.7 30.243 0.00 446 0.000
10/17/17 4:00p 64.7 46 43.4 1.0 S 5.0 64.7 30.243 0.00 458 0.012
10/17/17 3:55p 64.7 45 42.9 3.0 SSW 7.0 64.7 30.244 0.00 468 0.000
10/17/17 3:50p 64.9 46 43.6 2.0 SSE 7.0 64.9 30.247 0.00 478 0.000
10/17/17 3:45p 65.6 45 43.7 1.0 S 5.0 65.6 30.245 0.00 489 0.000
10/17/17 3:40p 65.2 46 43.9 0.0 S 1.0 65.2 30.247 0.00 498 0.000
10/17/17 3:35p 64.6 46 43.3 1.0 SSW 6.0 64.6 30.249 0.00 506 0.000
10/17/17 3:30p 64.9 46 43.6 2.0 SSW 8.0 64.9 30.250 0.00 516 0.000
10/17/17 3:25p 64.5 51 46.0 1.0 SSE 2.0 64.5 30.252 0.00 524 0.000
10/17/17 3:20p 64.2 49 44.6 2.0 SSW 6.0 64.2 30.254 0.00 532 0.000
10/17/17 3:15p 64.3 48 44.2 3.0 SSW 8.0 64.3 30.256 0.00 541 0.000
10/17/17 3:10p 64.6 51 46.1 1.0 SSW 6.0 64.6 30.256 0.00 550 0.000
10/17/17 3:05p 64.3 48 44.2 1.0 S 5.0 64.3 30.258 0.00 556 0.000
10/17/17 3:00p 63.9 50 44.9 2.0 SSW 7.0 63.9 30.261 0.00 561 0.014
10/17/17 2:55p 63.7 48 43.6 2.0 S 7.0 63.7 30.263 0.00 570 0.000
10/17/17 2:50p 63.8 50 44.8 2.0 SSW 9.0 63.8 30.268 0.00 576 0.000
10/17/17 2:45p 63.1 50 44.2 2.0 S 6.0 63.1 30.268 0.00 582 0.000
10/17/17 2:40p 63.1 49 43.6 5.0 SSE 11.0 63.1 30.274 0.00 588 0.000
10/17/17 2:35p 63.5 51 45.0 2.0 SSW 10.0 63.5 30.274 0.00 594 0.000
10/17/17 2:30p 63.3 50 44.3 2.0 SSE 8.0 63.3 30.278 0.00 599 0.000
10/17/17 2:25p 63.2 51 44.8 3.0 SSW 9.0 63.2 30.279 0.00 605 0.000
10/17/17 2:20p 63.2 49 43.7 2.0 S 4.0 63.2 30.279 0.00 608 0.000
10/17/17 2:15p 63.0 51 44.6 3.0 S 6.0 63.0 30.283 0.00 613 0.000
10/17/17 2:10p 63.1 47 42.5 4.0 SSW 10.0 63.1 30.286 0.00 617 0.000
10/17/17 2:05p 63.2 49 43.7 3.0 S 6.0 63.2 30.287 0.00 619 0.000
10/17/17 2:00p 62.8 50 43.9 1.0 SSW 4.0 62.8 30.291 0.00 622 0.014
10/17/17 1:55p 62.5 49 43.1 3.0 SSW 8.0 62.5 30.295 0.00 624 0.000
10/17/17 1:50p 62.3 51 43.9 0.0 S 3.0 62.3 30.299 0.00 623 0.000
10/17/17 1:45p 61.8 53 44.5 1.0 SSE 7.0 61.8 30.302 0.00 624 0.000
10/17/17 1:40p 61.7 51 43.4 4.0 S 10.0 61.7 30.306 0.00 624 0.000
10/17/17 1:35p 61.8 54 45.0 2.0 S 6.0 61.8 30.308 0.00 627 0.000
10/17/17 1:30p 61.4 52 43.6 0.0 WNW 2.0 61.4 30.312 0.00 627 0.000
10/17/17 1:25p 61.0 51 42.7 4.0 S 7.0 61.0 30.317 0.00 628 0.000
10/17/17 1:20p 61.3 54 44.5 3.0 SSW 6.0 61.3 30.321 0.00 627 0.000
10/17/17 1:15p 60.9 51 42.6 3.0 SSE 8.0 60.9 30.323 0.00 626 0.000
10/17/17 1:10p 60.9 52 43.1 2.0 WNW 7.0 60.9 30.329 0.00 625 0.000
10/17/17 1:05p 60.7 53 43.5 2.0 S 5.0 60.7 30.331 0.00 623 0.000
10/17/17 1:00p 60.7 50 41.9 3.0 SSW 8.0 60.7 30.334 0.00 620 0.013
10/17/17 12:55p 60.2 50 41.5 1.0 WNW 7.0 60.2 30.339 0.00 617 0.000
10/17/17 12:50p 59.5 52 41.9 2.0 S 5.0 59.5 30.341 0.00 614 0.000
10/17/17 12:45p 59.4 51 41.3 4.0 S 9.0 59.4 30.342 0.00 612 0.000
10/17/17 12:40p 59.3 51 41.2 5.0 S 11.0 59.2 30.343 0.00 608 0.000
10/17/17 12:35p 59.8 53 42.6 3.0 S 9.0 59.8 30.343 0.00 604 0.000
10/17/17 12:30p 59.8 57 44.5 2.0 SSW 6.0 59.8 30.346 0.00 600 0.000
10/17/17 12:25p 59.5 54 42.8 2.0 S 6.0 59.5 30.349 0.00 596 0.000
10/17/17 12:20p 59.3 56 43.6 1.0 S 7.0 59.3 30.350 0.00 590 0.000
10/17/17 12:15p 58.8 56 43.1 1.0 SSW 6.0 58.8 30.351 0.00 584 0.000
10/17/17 12:10p 58.5 55 42.4 3.0 SSE 7.0 58.5 30.353 0.00 578 0.000
10/17/17 12:05p 58.7 57 43.5 1.0 S 6.0 58.7 30.354 0.00 572 0.000
10/17/17 12:00p 58.5 56 42.8 1.0 SSW 7.0 58.5 30.353 0.00 564 0.009
10/17/17 11:55a 58.3 59 44.0 1.0 SSW 6.0 58.3 30.355 0.00 557 0.000
10/17/17 11:50a 58.1 58 43.4 1.0 S 7.0 58.1 30.354 0.00 549 0.000
10/17/17 11:45a 57.6 60 43.8 1.0 W 7.0 57.6 30.356 0.00 541 0.000
10/17/17 11:40a 57.2 63 44.7 1.0 SSW 3.0 57.2 30.357 0.00 533 0.000
10/17/17 11:35a 56.6 65 45.0 1.0 S 4.0 56.6 30.355 0.00 525 0.000
10/17/17 11:30a 55.9 63 43.5 1.0 S 4.0 55.9 30.355 0.00 517 0.000
10/17/17 11:25a 55.5 65 43.9 2.0 S 6.0 55.5 30.354 0.00 507 0.000
10/17/17 11:20a 55.3 65 43.7 2.0 S 8.0 55.3 30.352 0.00 488 0.000
10/17/17 11:15a 55.1 66 43.9 1.0 SSE 4.0 55.1 30.356 0.00 408 0.000
10/17/17 11:10a 54.9 65 43.4 1.0 S 4.0 54.9 30.352 0.00 114 0.000
10/17/17 11:05a 54.5 66 43.4 0.0 SSW 4.0 54.5 30.354 0.00 55 0.000
10/17/17 11:00a 54.2 67 43.5 1.0 S 4.0 54.2 30.355 0.00 36 0.002
10/17/17 10:55a 53.7 68 43.4 1.0 SSW 6.0 53.7 30.356 0.00 35 0.000
10/17/17 10:50a 53.3 68 43.0 1.0 S 5.0 53.3 30.357 0.00 36 0.000
10/17/17 10:45a 52.9 69 43.0 1.0 SSW 6.0 52.9 30.357 0.00 45 0.000
10/17/17 10:40a 52.6 68 42.3 1.0 SSW 5.0 52.6 30.356 0.00 58 0.000
10/17/17 10:35a 52.3 69 42.4 0.0 SSW 2.0 52.3 30.357 0.00 89 0.000
10/17/17 10:30a 51.9 68 41.7 1.0 SSW 4.0 51.9 30.356 0.00 186 0.000
10/17/17 10:25a 51.7 69 41.9 0.0 SSW 5.0 51.7 30.359 0.00 175 0.000
10/17/17 10:20a 51.4 69 41.6 0.0 SSE 5.0 51.4 30.360 0.00 60 0.000
10/17/17 10:15a 51.4 71 42.3 0.0 --- 0.0 51.4 30.364 0.00 96 0.000
10/17/17 10:10a 51.1 70 41.7 0.0 S 4.0 51.1 30.365 0.00 88 0.000
10/17/17 10:05a 51.1 70 41.7 0.0 SSE 4.0 51.1 30.364 0.00 209 0.000
10/17/17 10:00a 51.1 72 42.4 0.0 S 2.0 51.1 30.363 0.00 301 0.002
10/17/17 9:55a 50.9 71 41.8 0.0 SSW 1.0 50.9 30.365 0.00 296 0.000
10/17/17 9:50a 50.6 72 41.9 0.0 --- 0.0 50.6 30.364 0.00 205 0.000
10/17/17 9:45a 50.5 70 41.1 0.0 SSW 3.0 50.5 30.362 0.00 62 0.000
10/17/17 9:40a 50.2 72 41.5 0.0 S 1.0 50.2 30.359 0.00 119 0.000
10/17/17 9:35a 49.8 73 41.5 0.0 --- 0.0 49.8 30.359 0.00 84 0.000
10/17/17 9:30a 49.4 74 41.5 0.0 SSW 1.0 49.4 30.357 0.00 56 0.000
10/17/17 9:25a 49.1 72 40.5 0.0 --- 0.0 49.1 30.355 0.00 64 0.000
10/17/17 9:20a 48.8 72 40.2 0.0 --- 0.0 48.8 30.352 0.00 31 0.000
10/17/17 9:15a 48.7 72 40.1 0.0 SSE 1.0 48.7 30.353 0.00 51 0.000
10/17/17 9:10a 48.7 71 39.7 0.0 SSW 1.0 48.7 30.351 0.00 41 0.000
10/17/17 9:05a 48.6 72 40.0 0.0 --- 0.0 48.6 30.351 0.00 23 0.000
10/17/17 9:00a 48.4 72 39.8 0.0 --- 0.0 48.4 30.351 0.00 23 0.000
10/17/17 8:55a 48.1 72 39.5 0.0 --- 0.0 48.1 30.348 0.00 21 0.000
10/17/17 8:50a 47.7 73 39.5 0.0 SSW 1.0 47.7 30.344 0.00 28 0.000
10/17/17 8:45a 47.4 73 39.2 0.0 SSW 2.0 47.4 30.346 0.00 24 0.000
10/17/17 8:40a 47.0 74 39.1 0.0 --- 0.0 47.0 30.343 0.00 20 0.000
10/17/17 8:35a 46.7 74 38.9 0.0 S 1.0 46.7 30.344 0.00 18 0.000
10/17/17 8:30a 46.4 75 38.9 0.0 SSW 1.0 46.4 30.343 0.00 16 0.000
10/17/17 8:25a 46.0 76 38.9 0.0 SSW 1.0 46.0 30.339 0.00 15 0.000
10/17/17 8:20a 45.6 77 38.8 0.0 SSW 1.0 45.6 30.340 0.00 12 0.000
10/17/17 8:15a 45.2 79 39.1 0.0 S 3.0 45.2 30.337 0.00 11 0.000
10/17/17 8:10a 44.9 80 39.1 0.0 S 2.0 44.9 30.339 0.00 9 0.000
10/17/17 8:05a 44.4 81 38.9 0.0 S 1.0 44.4 30.336 0.00 7 0.000
10/17/17 8:00a 44.2 82 39.1 0.0 S 1.0 44.2 30.336 0.00 3 0.000
10/17/17 7:55a 43.8 83 39.0 0.0 SSE 2.0 43.8 30.334 0.00 0 0.000
10/17/17 7:50a 43.6 84 39.1 0.0 SSW 2.0 43.6 30.332 0.00 0 0.000
10/17/17 7:45a 43.6 84 39.1 0.0 SSW 2.0 43.6 30.334 0.00 0 0.000
10/17/17 7:40a 43.6 84 39.1 0.0 SW 1.0 43.6 30.334 0.00 0 0.000
10/17/17 7:35a 43.8 84 39.3 0.0 SW 1.0 43.8 30.332 0.00 0 0.000
10/17/17 7:30a 43.9 84 39.4 0.0 --- 0.0 43.9 30.332 0.00 0 0.000
10/17/17 7:25a 43.7 85 39.5 0.0 SW 2.0 43.7 30.332 0.00 0 0.000
10/17/17 7:20a 43.0 87 39.4 0.0 --- 0.0 43.0 30.334 0.00 0 0.000
10/17/17 7:15a 42.6 88 39.3 0.0 SW 1.0 42.6 30.332 0.00 0 0.000
10/17/17 7:10a 42.5 89 39.5 0.0 W 1.0 42.5 30.332 0.00 0 0.000
10/17/17 7:05a 42.5 89 39.5 0.0 W 1.0 42.5 30.331 0.00 0 0.000
10/17/17 7:00a 42.6 88 39.3 0.0 --- 0.0 42.6 30.329 0.00 0 0.000
10/17/17 6:55a 42.8 88 39.5 0.0 --- 0.0 42.8 30.329 0.00 0 0.000
10/17/17 6:50a 43.0 87 39.4 0.0 --- 0.0 43.0 30.329 0.00 0 0.000
10/17/17 6:45a 43.1 87 39.5 0.0 --- 0.0 43.1 30.327 0.00 0 0.000
10/17/17 6:40a 43.2 87 39.6 0.0 --- 0.0 43.2 30.325 0.00 0 0.000
10/17/17 6:35a 43.4 87 39.8 0.0 --- 0.0 43.4 30.327 0.00 0 0.000
10/17/17 6:30a 43.4 87 39.8 0.0 --- 0.0 43.4 30.326 0.00 0 0.000
10/17/17 6:25a 43.3 87 39.7 0.0 --- 0.0 43.3 30.325 0.00 0 0.000
10/17/17 6:20a 43.4 86 39.5 0.0 --- 0.0 43.4 30.326 0.00 0 0.000
10/17/17 6:15a 43.4 86 39.5 0.0 --- 0.0 43.4 30.324 0.00 0 0.000
10/17/17 6:10a 43.6 86 39.7 0.0 --- 0.0 43.6 30.322 0.00 0 0.000
10/17/17 6:05a 43.8 86 39.9 0.0 --- 0.0 43.8 30.321 0.00 0 0.000
10/17/17 6:00a 43.8 86 39.9 0.0 --- 0.0 43.8 30.318 0.00 0 0.000
10/17/17 5:55a 43.8 86 39.9 0.0 --- 0.0 43.8 30.316 0.00 0 0.000
10/17/17 5:50a 43.9 87 40.3 0.0 --- 0.0 43.9 30.315 0.00 0 0.000
10/17/17 5:45a 43.9 87 40.3 0.0 --- 0.0 43.9 30.314 0.00 0 0.000
10/17/17 5:40a 43.9 87 40.3 0.0 --- 0.0 43.9 30.312 0.00 0 0.000
10/17/17 5:35a 43.9 87 40.3 0.0 --- 0.0 43.9 30.310 0.00 0 0.000
10/17/17 5:30a 44.0 87 40.4 0.0 --- 0.0 44.0 30.309 0.00 0 0.000
10/17/17 5:25a 44.1 87 40.5 0.0 --- 0.0 44.1 30.307 0.00 0 0.000
10/17/17 5:20a 44.1 87 40.5 0.0 --- 0.0 44.1 30.307 0.00 0 0.000
10/17/17 5:15a 44.0 88 40.7 0.0 --- 0.0 44.0 30.304 0.00 0 0.000
10/17/17 5:10a 43.9 87 40.3 0.0 --- 0.0 43.9 30.304 0.00 0 0.000
10/17/17 5:05a 43.9 87 40.3 0.0 --- 0.0 43.9 30.302 0.00 0 0.000
10/17/17 5:00a 43.9 87 40.3 0.0 --- 0.0 43.9 30.301 0.00 0 0.000
10/17/17 4:55a 43.9 87 40.3 0.0 --- 0.0 43.9 30.301 0.00 0 0.000
10/17/17 4:50a 43.8 86 39.9 0.0 --- 0.0 43.8 30.299 0.00 0 0.000
10/17/17 4:45a 43.9 86 40.0 0.0 --- 0.0 43.9 30.298 0.00 0 0.000
10/17/17 4:40a 43.8 86 39.9 0.0 --- 0.0 43.8 30.298 0.00 0 0.000
10/17/17 4:35a 43.9 86 40.0 0.0 --- 0.0 43.9 30.297 0.00 0 0.000
10/17/17 4:30a 43.8 87 40.2 0.0 --- 0.0 43.8 30.294 0.00 0 0.000
10/17/17 4:25a 43.7 86 39.8 0.0 --- 0.0 43.7 30.293 0.00 0 0.000
10/17/17 4:20a 43.7 86 39.8 0.0 --- 0.0 43.7 30.292 0.00 0 0.000
10/17/17 4:15a 43.8 86 39.9 0.0 --- 0.0 43.8 30.293 0.00 0 0.000
10/17/17 4:10a 43.8 86 39.9 0.0 --- 0.0 43.8 30.295 0.00 0 0.000
10/17/17 4:05a 43.8 86 39.9 0.0 --- 0.0 43.8 30.295 0.00 0 0.000
10/17/17 4:00a 43.7 86 39.8 0.0 --- 0.0 43.7 30.293 0.00 0 0.000
10/17/17 3:55a 43.8 85 39.6 0.0 --- 0.0 43.8 30.294 0.00 0 0.000
10/17/17 3:50a 44.0 85 39.8 0.0 --- 0.0 44.0 30.295 0.00 0 0.000
10/17/17 3:45a 44.1 85 39.9 0.0 --- 0.0 44.1 30.296 0.00 0 0.000
10/17/17 3:40a 44.3 85 40.1 0.0 --- 0.0 44.3 30.297 0.00 0 0.000
10/17/17 3:35a 44.4 85 40.2 0.0 --- 0.0 44.4 30.298 0.00 0 0.000
10/17/17 3:30a 44.6 85 40.4 0.0 --- 0.0 44.6 30.298 0.00 0 0.000
10/17/17 3:25a 44.8 85 40.6 0.0 --- 0.0 44.8 30.297 0.00 0 0.000
10/17/17 3:20a 44.7 85 40.5 0.0 --- 0.0 44.7 30.295 0.00 0 0.000
10/17/17 3:15a 44.6 86 40.7 0.0 --- 0.0 44.6 30.293 0.00 0 0.000
10/17/17 3:10a 44.6 86 40.7 0.0 --- 0.0 44.6 30.294 0.00 0 0.000
10/17/17 3:05a 44.6 86 40.7 0.0 --- 0.0 44.6 30.292 0.00 0 0.000
10/17/17 3:00a 44.7 86 40.8 0.0 --- 0.0 44.7 30.293 0.00 0 0.000
10/17/17 2:55a 44.9 86 41.0 0.0 --- 0.0 44.9 30.293 0.00 0 0.000
10/17/17 2:50a 44.9 86 41.0 0.0 --- 0.0 44.9 30.291 0.00 0 0.000
10/17/17 2:45a 44.9 86 41.0 0.0 --- 0.0 44.9 30.291 0.00 0 0.000
10/17/17 2:40a 44.9 86 41.0 0.0 --- 0.0 44.9 30.290 0.00 0 0.000
10/17/17 2:35a 44.8 86 40.9 0.0 --- 0.0 44.8 30.288 0.00 0 0.000
10/17/17 2:30a 44.9 86 41.0 0.0 --- 0.0 44.9 30.290 0.00 0 0.000
10/17/17 2:25a 44.9 86 41.0 0.0 --- 0.0 44.9 30.291 0.00 0 0.000
10/17/17 2:20a 44.9 85 40.7 0.0 --- 0.0 44.9 30.290 0.00 0 0.000
10/17/17 2:15a 44.8 85 40.6 0.0 --- 0.0 44.8 30.289 0.00 0 0.000
10/17/17 2:10a 44.7 85 40.5 0.0 --- 0.0 44.7 30.289 0.00 0 0.000
10/17/17 2:05a 44.6 85 40.4 0.0 --- 0.0 44.6 30.289 0.00 0 0.000
10/17/17 2:00a 44.6 84 40.1 0.0 --- 0.0 44.6 30.288 0.00 0 0.000
10/17/17 1:55a 44.6 84 40.1 0.0 --- 0.0 44.6 30.287 0.00 0 0.000
10/17/17 1:50a 44.6 85 40.4 0.0 --- 0.0 44.6 30.287 0.00 0 0.000
10/17/17 1:45a 44.8 85 40.6 0.0 --- 0.0 44.8 30.288 0.00 0 0.000
10/17/17 1:40a 45.1 84 40.6 0.0 --- 0.0 45.1 30.287 0.00 0 0.000
10/17/17 1:35a 45.3 84 40.7 0.0 --- 0.0 45.3 30.287 0.00 0 0.000
10/17/17 1:30a 45.4 84 40.8 0.0 --- 0.0 45.4 30.286 0.00 0 0.000
10/17/17 1:25a 45.5 83 40.6 0.0 --- 0.0 45.5 30.286 0.00 0 0.000
10/17/17 1:20a 45.8 84 41.2 0.0 --- 0.0 45.8 30.284 0.00 0 0.000
10/17/17 1:15a 45.7 84 41.1 0.0 --- 0.0 45.7 30.286 0.00 0 0.000
10/17/17 1:10a 45.7 84 41.1 0.0 --- 0.0 45.7 30.287 0.00 0 0.000
10/17/17 1:05a 45.8 83 40.9 0.0 --- 0.0 45.8 30.286 0.00 0 0.000
10/17/17 1:00a 45.8 83 40.9 0.0 --- 0.0 45.8 30.288 0.00 0 0.000
10/17/17 12:55a 45.9 83 41.0 0.0 --- 0.0 45.9 30.289 0.00 0 0.000
10/17/17 12:50a 45.9 83 41.0 0.0 --- 0.0 45.9 30.290 0.00 0 0.000
10/17/17 12:45a 46.1 83 41.2 0.0 --- 0.0 46.1 30.288 0.00 0 0.000
10/17/17 12:40a 46.2 83 41.3 0.0 --- 0.0 46.2 30.288 0.00 0 0.000
10/17/17 12:35a 46.4 82 41.2 0.0 --- 0.0 46.4 30.289 0.00 0 0.000
10/17/17 12:30a 46.5 82 41.3 0.0 --- 0.0 46.5 30.288 0.00 0 0.000
10/17/17 12:25a 46.6 81 41.1 0.0 --- 0.0 46.6 30.289 0.00 0 0.000
10/17/17 12:20a 46.8 80 41.0 0.0 --- 0.0 46.8 30.290 0.00 0 0.000
10/17/17 12:15a 46.8 78 40.3 0.0 --- 0.0 46.8 30.292 0.00 0 0.000
10/17/17 12:10a 46.9 79 40.7 0.0 --- 0.0 46.9 30.290 0.00 0 0.000
10/17/17 12:05a 46.9 78 40.4 0.0 --- 0.0 46.9 30.292 0.00 0 0.000

11,630 Page Views